Albia, IA (52531)

6:19 AM CDT on September 30, 2014 (GMT -0500)
Ottumwa Industrial | Change Station
CLOSE
Current Station
Airport
Location: Ottumwa,
Elevation: 843 ft
Nearby Weather Stations

Elev 843 ft 41.11 °N, 92.45 °W | Updated 26 minutes ago

Overcast
Overcast
58 °F
Feels Like 58 °F
N
12
Wind Variable Wind from East

Today
High -- | Low -- °F
--% Chance of Precip.
Yesterday
High -- | Low -- °F
Precip. -- in
7:06 AM 6:54 PM
Waxing Crescent, 35% visible
Pressure 29.97 in
Visibility 8.0 miles
Clouds Overcast 500 ft
Dew Point 56 °F
Humidity 93%
Rainfall 0.00 in
Snow Depth Not available.
UV 0 out of 12
Pollen 4.90 out of 12
Air Quality Not available.
Flu Activity Not available.
METAR KOTM 301053Z AUTO 09010KT 8SM OVC005 14/13 A2999 RMK AO2 SLP149 T01440133

More Conditions Fewer Conditions

Pressure 29.97 in
Visibility 8.0 miles
Clouds Overcast 500 ft
Dew Point 56 °F
Humidity 93%
Rainfall 0.00 in
Snow Depth Not available.
UV 0 out of 12
Pollen 4.90 out of 12
Air Quality Not available.
Flu Activity Not available.
METAR KOTM 301053Z AUTO 09010KT 8SM OVC005 14/13 A2999 RMK AO2 SLP149 T01440133

More Conditions Fewer Conditions

10-Day Weather Forecast

Almanac

Astronomy

Sep. 30, 2014 Rise Set
Actual Time 7:06 AM CDT 6:54 PM CDT
Civil Twilight 6:39 AM CDT 7:21 PM CDT
Nautical Twilight 6:07 AM CDT 7:53 PM CDT
Astronomical Twilight 5:34 AM CDT 8:26 PM CDT
Moon 1:17 PM CDT 11:22 PM CDT
Length of Visible Light 12h 42m
Length of Day
11h 47m
Tomorrow will be 2m 43s shorter.
Waxing Crescent, 35% of the Moon is Illuminated
Today
Waxing Crescent
Oct 1
First Quarter
Oct 8
Full
Oct 15
Last Quarter
Oct 23
New

Today's Extremes

State Highs State Lows

Community

WunderPhotos

Upload Photos

1,757,615 photos uploaded!

WunderBlogs® & News

Nearby

Snow Depth

Station Depth Elevation
No new snow has been reported.

Earthquake Activity

City Distance Mag. Time & Date
No recent earthquake activity has been reported nearby.
Minimum magnitude displayed is 2.5.

Coastal Water Temperatures

Place Temperature
No Stations Reporting

Nearby Weather Stations